sensor_id;sensor_type;location;lat;lon;timestamp;pressure;altitude;pressure_sealevel;temperature;humidity
50774;BME280;36745;48.544;8.918;2024-02-28T00:02:26;97277.75;;;6.46;94.22
50774;BME280;36745;48.544;8.918;2024-02-28T00:05:47;97276.44;;;6.54;94.51
50774;BME280;36745;48.544;8.918;2024-02-28T00:09:07;97273.84;;;6.70;94.06
50774;BME280;36745;48.544;8.918;2024-02-28T00:12:27;97289.56;;;6.66;93.92
50774;BME280;36745;48.544;8.918;2024-02-28T00:15:47;97277.84;;;6.65;94.20
50774;BME280;36745;48.544;8.918;2024-02-28T00:19:07;97282.59;;;6.61;94.09
50774;BME280;36745;48.544;8.918;2024-02-28T00:22:27;97287.31;;;6.61;94.77
50774;BME280;36745;48.544;8.918;2024-02-28T00:25:47;97291.22;;;6.60;94.91
50774;BME280;36745;48.544;8.918;2024-02-28T00:29:06;97294.34;;;6.62;94.98
50774;BME280;36745;48.544;8.918;2024-02-28T00:32:26;97284.72;;;6.50;95.84
50774;BME280;36745;48.544;8.918;2024-02-28T00:35:46;97294.34;;;6.62;94.90
50774;BME280;36745;48.544;8.918;2024-02-28T00:39:06;97288.00;;;6.65;94.92
50774;BME280;36745;48.544;8.918;2024-02-28T00:42:26;97289.56;;;6.66;94.42
50774;BME280;36745;48.544;8.918;2024-02-28T00:45:46;97287.91;;;6.72;94.56
50774;BME280;36745;48.544;8.918;2024-02-28T00:49:06;97280.53;;;6.69;94.55
50774;BME280;36745;48.544;8.918;2024-02-28T00:52:25;97278.53;;;6.69;94.46
50774;BME280;36745;48.544;8.918;2024-02-28T00:55:45;97278.63;;;6.66;94.71
50774;BME280;36745;48.544;8.918;2024-02-28T00:59:05;97275.53;;;6.64;94.63
50774;BME280;36745;48.544;8.918;2024-02-28T01:02:25;97281.75;;;6.64;94.16
50774;BME280;36745;48.544;8.918;2024-02-28T01:05:45;97293.56;;;6.61;94.76
50774;BME280;36745;48.544;8.918;2024-02-28T01:09:05;97283.78;;;6.60;95.12
50774;BME280;36745;48.544;8.918;2024-02-28T01:12:25;97291.22;;;6.60;94.96
50774;BME280;36745;48.544;8.918;2024-02-28T01:15:45;97294.03;;;6.56;94.92
50774;BME280;36745;48.544;8.918;2024-02-28T01:19:04;97296.69;;;6.60;95.15
50774;BME280;36745;48.544;8.918;2024-02-28T01:22:24;97295.97;;;6.56;95.93
50774;BME280;36745;48.544;8.918;2024-02-28T01:25:44;97291.28;;;6.56;96.32
50774;BME280;36745;48.544;8.918;2024-02-28T01:29:04;97296.22;;;6.65;96.35
50774;BME280;36745;48.544;8.918;2024-02-28T01:32:24;97295.81;;;6.66;96.14
50774;BME280;36745;48.544;8.918;2024-02-28T01:35:43;97306.84;;;6.63;96.50
50774;BME280;36745;48.544;8.918;2024-02-28T01:39:03;97307.50;;;6.70;96.58
50774;BME280;36745;48.544;8.918;2024-02-28T01:42:23;97308.41;;;6.64;96.67
50774;BME280;36745;48.544;8.918;2024-02-28T01:45:43;97307.56;;;6.67;96.90
50774;BME280;36745;48.544;8.918;2024-02-28T01:49:03;97311.38;;;6.73;96.68
50774;BME280;36745;48.544;8.918;2024-02-28T01:52:23;97320.84;;;6.68;96.64
50774;BME280;36745;48.544;8.918;2024-02-28T01:55:43;97319.59;;;6.73;96.91
50774;BME280;36745;48.544;8.918;2024-02-28T01:59:03;97319.22;;;6.71;97.06
50774;BME280;36745;48.544;8.918;2024-02-28T02:02:23;97322.34;;;6.73;97.01
50774;BME280;36745;48.544;8.918;2024-02-28T02:05:43;97326.97;;;6.76;96.94
50774;BME280;36745;48.544;8.918;2024-02-28T02:09:03;97327.72;;;6.80;96.88
50774;BME280;36745;48.544;8.918;2024-02-28T02:12:23;97327.59;;;6.87;96.45
50774;BME280;36745;48.544;8.918;2024-02-28T02:15:42;97329.16;;;6.88;96.48
50774;BME280;36745;48.544;8.918;2024-02-28T02:19:03;97330.69;;;6.89;96.36
50774;BME280;36745;48.544;8.918;2024-02-28T02:22:24;97334.94;;;6.94;95.54
50774;BME280;36745;48.544;8.918;2024-02-28T02:25:47;97336.91;;;6.93;95.76
50774;BME280;36745;48.544;8.918;2024-02-28T02:29:07;97342.00;;;6.91;95.21
50774;BME280;36745;48.544;8.918;2024-02-28T02:32:28;97347.13;;;6.89;95.42
50774;BME280;36745;48.544;8.918;2024-02-28T02:35:49;97359.22;;;6.92;95.39
50774;BME280;36745;48.544;8.918;2024-02-28T02:39:08;97360.47;;;6.87;95.72
50774;BME280;36745;48.544;8.918;2024-02-28T02:42:28;97362.50;;;6.83;95.94
50774;BME280;36745;48.544;8.918;2024-02-28T02:45:48;97363.59;;;6.89;95.84
50774;BME280;36745;48.544;8.918;2024-02-28T02:49:08;97364.28;;;6.93;95.64
50774;BME280;36745;48.544;8.918;2024-02-28T02:52:27;97362.41;;;6.90;95.15
50774;BME280;36745;48.544;8.918;2024-02-28T02:55:47;97366.66;;;6.91;95.28
50774;BME280;36745;48.544;8.918;2024-02-28T02:59:07;97376.81;;;6.94;94.83
50774;BME280;36745;48.544;8.918;2024-02-28T03:02:27;97382.28;;;6.94;94.86
50774;BME280;36745;48.544;8.918;2024-02-28T03:05:47;97385.84;;;6.91;94.79
50774;BME280;36745;48.544;8.918;2024-02-28T03:09:07;97387.06;;;6.90;94.70
50774;BME280;36745;48.544;8.918;2024-02-28T03:12:27;97388.25;;;6.89;94.06
50774;BME280;36745;48.544;8.918;2024-02-28T03:15:46;97396.06;;;6.91;94.46
50774;BME280;36745;48.544;8.918;2024-02-28T03:19:06;97408.50;;;6.95;94.16
50774;BME280;36745;48.544;8.918;2024-02-28T03:22:26;97405.00;;;6.95;93.86
50774;BME280;36745;48.544;8.918;2024-02-28T03:25:46;97409.69;;;6.94;93.65
50774;BME280;36745;48.544;8.918;2024-02-28T03:29:06;97416.06;;;6.88;93.61
50774;BME280;36745;48.544;8.918;2024-02-28T03:32:25;97425.50;;;6.83;93.89
50774;BME280;36745;48.544;8.918;2024-02-28T03:35:45;97431.53;;;6.74;93.82
50774;BME280;36745;48.544;8.918;2024-02-28T03:39:05;97437.31;;;6.80;93.84
50774;BME280;36745;48.544;8.918;2024-02-28T03:42:25;97431.38;;;6.85;93.83
50774;BME280;36745;48.544;8.918;2024-02-28T03:45:45;97430.59;;;6.85;93.47
50774;BME280;36745;48.544;8.918;2024-02-28T03:49:05;97436.47;;;6.83;93.07
50774;BME280;36745;48.544;8.918;2024-02-28T03:52:25;97429.09;;;6.80;93.53
50774;BME280;36745;48.544;8.918;2024-02-28T03:55:44;97434.13;;;6.85;93.60
50774;BME280;36745;48.544;8.918;2024-02-28T03:59:04;97439.16;;;6.87;93.81
50774;BME280;36745;48.544;8.918;2024-02-28T04:02:24;97447.34;;;6.90;93.61
50774;BME280;36745;48.544;8.918;2024-02-28T04:05:44;97443.06;;;6.89;93.74
50774;BME280;36745;48.544;8.918;2024-02-28T04:09:04;97449.00;;;6.84;94.04
50774;BME280;36745;48.544;8.918;2024-02-28T04:12:24;97440.31;;;6.89;93.81
50774;BME280;36745;48.544;8.918;2024-02-28T04:15:44;97440.34;;;6.86;93.58
50774;BME280;36745;48.544;8.918;2024-02-28T04:19:05;97440.31;;;6.89;93.48
50774;BME280;36745;48.544;8.918;2024-02-28T04:22:25;97443.13;;;6.82;93.56
50774;BME280;36745;48.544;8.918;2024-02-28T04:25:44;97446.59;;;6.86;93.54
50774;BME280;36745;48.544;8.918;2024-02-28T04:29:04;97445.94;;;6.79;93.34
50774;BME280;36745;48.544;8.918;2024-02-28T04:32:27;97442.16;;;6.69;93.08
50774;BME280;36745;48.544;8.918;2024-02-28T04:35:47;97457.81;;;6.68;93.48
50774;BME280;36745;48.544;8.918;2024-02-28T04:39:06;97457.44;;;6.66;93.30
50774;BME280;36745;48.544;8.918;2024-02-28T04:42:27;97461.41;;;6.62;93.17
50774;BME280;36745;48.544;8.918;2024-02-28T04:45:46;97464.16;;;6.62;92.85
50774;BME280;36745;48.544;8.918;2024-02-28T04:49:06;97464.94;;;6.62;93.53
50774;BME280;36745;48.544;8.918;2024-02-28T04:52:28;97464.16;;;6.62;93.40
50774;BME280;36745;48.544;8.918;2024-02-28T04:55:48;97468.78;;;6.65;93.34
50774;BME280;36745;48.544;8.918;2024-02-28T04:59:08;97472.31;;;6.65;93.30
50774;BME280;36745;48.544;8.918;2024-02-28T05:02:28;97475.91;;;6.59;93.20
50774;BME280;36745;48.544;8.918;2024-02-28T05:05:48;97471.00;;;6.47;93.46
50774;BME280;36745;48.544;8.918;2024-02-28T05:09:07;97477.13;;;6.58;93.40
50774;BME280;36745;48.544;8.918;2024-02-28T05:12:28;97484.50;;;6.61;93.28
50774;BME280;36745;48.544;8.918;2024-02-28T05:15:48;97475.63;;;6.50;93.07
50774;BME280;36745;48.544;8.918;2024-02-28T05:19:07;97485.81;;;6.49;92.98
50774;BME280;36745;48.544;8.918;2024-02-28T05:22:27;97495.63;;;6.47;92.72
50774;BME280;36745;48.544;8.918;2024-02-28T05:25:47;97487.78;;;6.49;92.58
50774;BME280;36745;48.544;8.918;2024-02-28T05:29:07;97496.41;;;6.47;92.73
50774;BME280;36745;48.544;8.918;2024-02-28T05:32:27;97501.91;;;6.44;92.30
50774;BME280;36745;48.544;8.918;2024-02-28T05:35:47;97503.03;;;6.50;92.53
50774;BME280;36745;48.544;8.918;2024-02-28T05:39:07;97497.09;;;6.55;92.60
50774;BME280;36745;48.544;8.918;2024-02-28T05:42:27;97511.97;;;6.54;92.13
50774;BME280;36745;48.544;8.918;2024-02-28T05:45:48;97510.44;;;6.53;92.29
50774;BME280;36745;48.544;8.918;2024-02-28T05:49:07;97508.88;;;6.52;92.51
50774;BME280;36745;48.544;8.918;2024-02-28T05:52:27;97512.88;;;6.44;91.82
50774;BME280;36745;48.544;8.918;2024-02-28T05:55:47;97521.50;;;6.42;91.89
50774;BME280;36745;48.544;8.918;2024-02-28T05:59:07;97528.63;;;6.32;91.75
50774;BME280;36745;48.544;8.918;2024-02-28T06:02:27;97532.50;;;6.39;91.87
50774;BME280;36745;48.544;8.918;2024-02-28T06:05:47;97538.00;;;6.35;91.38
50774;BME280;36745;48.544;8.918;2024-02-28T06:09:06;97541.16;;;6.33;91.63
50774;BME280;36745;48.544;8.918;2024-02-28T06:12:27;97537.28;;;6.27;91.65
50774;BME280;36745;48.544;8.918;2024-02-28T06:15:46;97542.31;;;6.32;91.37
50774;BME280;36745;48.544;8.918;2024-02-28T06:19:06;97552.94;;;6.27;91.20
50774;BME280;36745;48.544;8.918;2024-02-28T06:22:26;97558.94;;;6.15;90.59
50774;BME280;36745;48.544;8.918;2024-02-28T06:25:46;97563.19;;;6.19;91.07
50774;BME280;36745;48.544;8.918;2024-02-28T06:29:06;97571.31;;;6.26;91.18
50774;BME280;36745;48.544;8.918;2024-02-28T06:32:27;97573.22;;;6.37;91.03
50774;BME280;36745;48.544;8.918;2024-02-28T06:35:46;97579.47;;;6.33;90.74
50774;BME280;36745;48.544;8.918;2024-02-28T06:39:06;97589.63;;;6.37;90.47
50774;BME280;36745;48.544;8.918;2024-02-28T06:42:26;97592.72;;;6.39;90.29
50774;BME280;36745;48.544;8.918;2024-02-28T06:45:46;97590.81;;;6.32;89.91
50774;BME280;36745;48.544;8.918;2024-02-28T06:49:06;97600.69;;;6.22;89.31
50774;BME280;36745;48.544;8.918;2024-02-28T06:52:26;97597.91;;;6.29;89.65
50774;BME280;36745;48.544;8.918;2024-02-28T06:55:46;97608.41;;;6.35;89.60
50774;BME280;36745;48.544;8.918;2024-02-28T06:59:08;97610.72;;;6.40;89.60
50774;BME280;36745;48.544;8.918;2024-02-28T07:02:27;97615.75;;;6.45;89.57
50774;BME280;36745;48.544;8.918;2024-02-28T07:05:47;97606.75;;;6.48;89.62
50774;BME280;36745;48.544;8.918;2024-02-28T07:09:11;97613.34;;;6.50;89.11
50774;BME280;36745;48.544;8.918;2024-02-28T07:12:31;97614.88;;;6.55;89.36
50774;BME280;36745;48.544;8.918;2024-02-28T07:15:51;97623.09;;;6.55;88.62
50774;BME280;36745;48.544;8.918;2024-02-28T07:19:13;97620.78;;;6.50;88.46
50774;BME280;36745;48.544;8.918;2024-02-28T07:22:33;97623.09;;;6.55;88.99
50774;BME280;36745;48.544;8.918;2024-02-28T07:25:53;97625.75;;;6.62;88.66
50774;BME280;36745;48.544;8.918;2024-02-28T07:29:12;97626.94;;;6.61;88.54
50774;BME280;36745;48.544;8.918;2024-02-28T07:32:32;97629.69;;;6.61;88.17
50774;BME280;36745;48.544;8.918;2024-02-28T07:35:54;97630.84;;;6.60;87.89
50774;BME280;36745;48.544;8.918;2024-02-28T07:39:13;97636.72;;;6.62;88.08
50774;BME280;36745;48.544;8.918;2024-02-28T07:42:33;97636.66;;;6.69;87.95
50774;BME280;36745;48.544;8.918;2024-02-28T07:45:54;97627.22;;;6.70;87.59
50774;BME280;36745;48.544;8.918;2024-02-28T07:49:14;97643.22;;;6.75;87.75
50774;BME280;36745;48.544;8.918;2024-02-28T07:52:33;97640.06;;;6.80;87.89
50774;BME280;36745;48.544;8.918;2024-02-28T07:55:54;97641.59;;;6.81;87.33
50774;BME280;36745;48.544;8.918;2024-02-28T07:59:14;97650.16;;;6.87;87.84
50774;BME280;36745;48.544;8.918;2024-02-28T08:02:34;97654.06;;;6.89;87.30
50774;BME280;36745;48.544;8.918;2024-02-28T08:05:54;97665.16;;;6.75;86.86
50774;BME280;36745;48.544;8.918;2024-02-28T08:09:13;97663.53;;;6.81;86.78
50774;BME280;36745;48.544;8.918;2024-02-28T08:12:34;97666.25;;;6.81;86.98
50774;BME280;36745;48.544;8.918;2024-02-28T08:15:54;97670.22;;;6.80;86.28
50774;BME280;36745;48.544;8.918;2024-02-28T08:19:14;97670.63;;;6.75;86.28
50774;BME280;36745;48.544;8.918;2024-02-28T08:22:34;97674.47;;;6.81;86.53
50774;BME280;36745;48.544;8.918;2024-02-28T08:25:54;97679.53;;;6.86;86.50
50774;BME280;36745;48.544;8.918;2024-02-28T08:29:14;97671.28;;;6.86;86.35
50774;BME280;36745;48.544;8.918;2024-02-28T08:32:34;97686.88;;;6.96;86.15
50774;BME280;36745;48.544;8.918;2024-02-28T08:35:53;97665.63;;;7.04;86.00
50774;BME280;36745;48.544;8.918;2024-02-28T08:39:13;97677.91;;;6.92;85.00
50774;BME280;36745;48.544;8.918;2024-02-28T08:42:33;97679.13;;;6.88;84.90
50774;BME280;36745;48.544;8.918;2024-02-28T08:45:53;97687.38;;;6.84;84.44
50774;BME280;36745;48.544;8.918;2024-02-28T08:49:14;97691.00;;;6.74;84.13
50774;BME280;36745;48.544;8.918;2024-02-28T08:52:34;97684.47;;;6.61;84.38
50774;BME280;36745;48.544;8.918;2024-02-28T08:55:54;97687.44;;;6.77;84.88
50774;BME280;36745;48.544;8.918;2024-02-28T08:59:13;97696.34;;;6.88;84.68
50774;BME280;36745;48.544;8.918;2024-02-28T09:02:33;97697.47;;;6.94;83.72
50774;BME280;36745;48.544;8.918;2024-02-28T09:05:53;97676.22;;;7.02;83.95
50774;BME280;36745;48.544;8.918;2024-02-28T09:09:13;97687.53;;;7.07;83.19
50774;BME280;36745;48.544;8.918;2024-02-28T09:12:33;97691.38;;;7.13;83.66
50774;BME280;36745;48.544;8.918;2024-02-28T09:15:53;97692.88;;;7.22;83.19
50774;BME280;36745;48.544;8.918;2024-02-28T09:19:13;97689.63;;;7.30;83.16
50774;BME280;36745;48.544;8.918;2024-02-28T09:22:32;97693.41;;;7.43;82.92
50774;BME280;36745;48.544;8.918;2024-02-28T09:25:52;97695.09;;;7.34;82.18
50774;BME280;36745;48.544;8.918;2024-02-28T09:29:12;97697.97;;;7.20;82.03
50774;BME280;36745;48.544;8.918;2024-02-28T09:32:32;97701.31;;;7.38;81.39
50774;BME280;36745;48.544;8.918;2024-02-28T09:35:51;97698.47;;;7.45;81.21
50774;BME280;36745;48.544;8.918;2024-02-28T09:39:12;97700.91;;;7.36;80.49
50774;BME280;36745;48.544;8.918;2024-02-28T09:42:34;97705.81;;;7.51;81.21
50774;BME280;36745;48.544;8.918;2024-02-28T09:45:59;97701.69;;;7.70;80.25
50774;BME280;36745;48.544;8.918;2024-02-28T09:49:19;97706.72;;;7.75;79.40
50774;BME280;36745;48.544;8.918;2024-02-28T09:52:38;97709.53;;;7.68;78.77
50774;BME280;36745;48.544;8.918;2024-02-28T09:55:58;97712.00;;;7.59;78.66
50774;BME280;36745;48.544;8.918;2024-02-28T09:59:18;97713.00;;;7.42;78.63
50774;BME280;36745;48.544;8.918;2024-02-28T10:02:40;97705.94;;;7.41;79.51
50774;BME280;36745;48.544;8.918;2024-02-28T10:06:02;97703.41;;;7.57;79.12
50774;BME280;36745;48.544;8.918;2024-02-28T10:09:22;97706.78;;;7.68;79.06
50774;BME280;36745;48.544;8.918;2024-02-28T10:12:42;97712.00;;;7.89;78.93
50774;BME280;36745;48.544;8.918;2024-02-28T10:16:02;97709.66;;;7.61;77.00
50774;BME280;36745;48.544;8.918;2024-02-28T10:19:22;97707.13;;;7.74;77.99
50774;BME280;36745;48.544;8.918;2024-02-28T10:22:42;97707.81;;;7.81;77.50
50774;BME280;36745;48.544;8.918;2024-02-28T10:26:02;97722.00;;;7.76;76.96
50774;BME280;36745;48.544;8.918;2024-02-28T10:29:23;97712.22;;;8.02;77.86
50774;BME280;36745;48.544;8.918;2024-02-28T10:32:51;97723.06;;;8.13;77.56
50774;BME280;36745;48.544;8.918;2024-02-28T10:36:10;97726.28;;;8.08;76.47
50774;BME280;36745;48.544;8.918;2024-02-28T10:39:31;97737.31;;;8.04;76.34
50774;BME280;36745;48.544;8.918;2024-02-28T10:42:51;97739.16;;;8.11;76.28
50774;BME280;36745;48.544;8.918;2024-02-28T10:46:14;97741.72;;;8.25;75.85
50774;BME280;36745;48.544;8.918;2024-02-28T10:49:34;97742.44;;;8.29;76.59
50774;BME280;36745;48.544;8.918;2024-02-28T10:52:54;97755.47;;;8.25;75.83
50774;BME280;36745;48.544;8.918;2024-02-28T10:56:20;97746.59;;;8.14;74.87
50774;BME280;36745;48.544;8.918;2024-02-28T10:59:40;97739.16;;;8.11;74.32
50774;BME280;36745;48.544;8.918;2024-02-28T11:03:03;97745.09;;;8.09;74.54
50774;BME280;36745;48.544;8.918;2024-02-28T11:06:23;97752.34;;;8.23;74.97
50774;BME280;36745;48.544;8.918;2024-02-28T11:09:44;97744.09;;;8.23;74.28
50774;BME280;36745;48.544;8.918;2024-02-28T11:13:05;97739.13;;;8.14;74.63
50774;BME280;36745;48.544;8.918;2024-02-28T11:16:32;97741.72;;;8.25;74.70
50774;BME280;36745;48.544;8.918;2024-02-28T11:19:51;97749.66;;;8.19;74.03
50774;BME280;36745;48.544;8.918;2024-02-28T11:23:12;97750.66;;;8.02;74.80
50774;BME280;36745;48.544;8.918;2024-02-28T11:26:33;97760.50;;;8.30;75.19
50774;BME280;36745;48.544;8.918;2024-02-28T11:29:53;97767.50;;;8.34;74.27
50774;BME280;36745;48.544;8.918;2024-02-28T11:33:13;97766.00;;;8.30;73.65
50774;BME280;36745;48.544;8.918;2024-02-28T11:36:33;97760.50;;;8.30;73.98
50774;BME280;36745;48.544;8.918;2024-02-28T11:39:53;97762.13;;;8.24;73.37
50774;BME280;36745;48.544;8.918;2024-02-28T11:43:13;97751.88;;;8.28;73.82
50774;BME280;36745;48.544;8.918;2024-02-28T11:46:33;97755.59;;;8.14;72.81
50774;BME280;36745;48.544;8.918;2024-02-28T11:49:53;97758.22;;;8.21;74.35
50774;BME280;36745;48.544;8.918;2024-02-28T11:53:13;97753.84;;;8.31;73.60
50774;BME280;36745;48.544;8.918;2024-02-28T11:56:32;97766.00;;;8.26;73.48
50774;BME280;36745;48.544;8.918;2024-02-28T11:59:52;97768.19;;;8.12;73.52
50774;BME280;36745;48.544;8.918;2024-02-28T12:03:12;97758.97;;;8.25;74.03
50774;BME280;36745;48.544;8.918;2024-02-28T12:06:34;97760.22;;;8.48;74.13
50774;BME280;36745;48.544;8.918;2024-02-28T12:09:54;97749.88;;;8.01;73.82
50774;BME280;36745;48.544;8.918;2024-02-28T12:13:18;97752.72;;;8.25;73.88
50774;BME280;36745;48.544;8.918;2024-02-28T12:16:38;97745.06;;;8.39;73.38
50774;BME280;36745;48.544;8.918;2024-02-28T12:19:59;97747.75;;;8.43;72.21
50774;BME280;36745;48.544;8.918;2024-02-28T12:23:19;97738.41;;;8.37;72.96
50774;BME280;36745;48.544;8.918;2024-02-28T12:26:39;97744.53;;;8.48;73.32
50774;BME280;36745;48.544;8.918;2024-02-28T12:29:59;97747.28;;;8.48;72.76
50774;BME280;36745;48.544;8.918;2024-02-28T12:33:19;97743.00;;;8.17;72.27
50774;BME280;36745;48.544;8.918;2024-02-28T12:36:38;97740.84;;;8.31;72.57
50774;BME280;36745;48.544;8.918;2024-02-28T12:39:58;97738.22;;;8.51;73.03
50774;BME280;36745;48.544;8.918;2024-02-28T12:43:18;97729.00;;;8.38;71.78
50774;BME280;36745;48.544;8.918;2024-02-28T12:46:38;97734.00;;;8.43;72.61
50774;BME280;36745;48.544;8.918;2024-02-28T12:49:58;97733.66;;;8.41;71.56
50774;BME280;36745;48.544;8.918;2024-02-28T12:53:17;97727.09;;;8.35;72.33
50774;BME280;36745;48.544;8.918;2024-02-28T12:56:38;97727.56;;;8.53;72.30
50774;BME280;36745;48.544;8.918;2024-02-28T12:59:58;97728.66;;;8.59;71.96
50774;BME280;36745;48.544;8.918;2024-02-28T13:03:18;97717.66;;;8.59;71.15
50774;BME280;36745;48.544;8.918;2024-02-28T13:06:39;97719.81;;;8.48;71.09
50774;BME280;36745;48.544;8.918;2024-02-28T13:09:59;97723.63;;;8.27;71.00
50774;BME280;36745;48.544;8.918;2024-02-28T13:13:19;97728.28;;;8.34;71.00
50774;BME280;36745;48.544;8.918;2024-02-28T13:16:38;97719.84;;;8.18;70.76
50774;BME280;36745;48.544;8.918;2024-02-28T13:19:58;97726.13;;;8.18;71.83
50774;BME280;36745;48.544;8.918;2024-02-28T13:23:18;97721.31;;;8.26;71.74
50774;BME280;36745;48.544;8.918;2024-02-28T13:26:38;97721.94;;;8.37;71.41
50774;BME280;36745;48.544;8.918;2024-02-28T13:29:57;97725.25;;;8.25;70.64
50774;BME280;36745;48.544;8.918;2024-02-28T13:33:17;97727.81;;;8.39;71.15
50774;BME280;36745;48.544;8.918;2024-02-28T13:36:37;97731.22;;;8.47;71.29
50774;BME280;36745;48.544;8.918;2024-02-28T13:40:01;97731.06;;;8.57;71.07
50774;BME280;36745;48.544;8.918;2024-02-28T13:43:24;97721.44;;;8.46;69.92
50774;BME280;36745;48.544;8.918;2024-02-28T13:46:45;97728.28;;;8.34;70.58
50774;BME280;36745;48.544;8.918;2024-02-28T13:50:04;97718.69;;;8.46;71.07
50774;BME280;36745;48.544;8.918;2024-02-28T13:53:24;97717.28;;;8.34;71.20
50774;BME280;36745;48.544;8.918;2024-02-28T13:56:44;97713.56;;;8.17;70.81
50774;BME280;36745;48.544;8.918;2024-02-28T14:00:04;97711.84;;;8.27;71.37
50774;BME280;36745;48.544;8.918;2024-02-28T14:03:26;97706.81;;;7.95;71.65
50774;BME280;36745;48.544;8.918;2024-02-28T14:06:46;97700.47;;;8.01;72.18
50774;BME280;36745;48.544;8.918;2024-02-28T14:10:06;97702.75;;;8.07;72.93
50774;BME280;36745;48.544;8.918;2024-02-28T14:13:26;97700.25;;;8.16;71.59
50774;BME280;36745;48.544;8.918;2024-02-28T14:16:45;97702.75;;;8.07;71.39
50774;BME280;36745;48.544;8.918;2024-02-28T14:20:06;97712.38;;;7.91;72.31
50774;BME280;36745;48.544;8.918;2024-02-28T14:23:25;97717.88;;;7.91;72.12
50774;BME280;36745;48.544;8.918;2024-02-28T14:26:45;97722.19;;;7.92;72.81
50774;BME280;36745;48.544;8.918;2024-02-28T14:30:08;97724.81;;;7.99;72.66
50774;BME280;36745;48.544;8.918;2024-02-28T14:33:28;97722.97;;;8.20;72.31
50774;BME280;36745;48.544;8.918;2024-02-28T14:36:48;97715.78;;;7.99;71.88
50774;BME280;36745;48.544;8.918;2024-02-28T14:40:08;97724.16;;;8.19;72.31
50774;BME280;36745;48.544;8.918;2024-02-28T14:43:31;97724.56;;;8.17;71.75
50774;BME280;36745;48.544;8.918;2024-02-28T14:46:51;97726.38;;;8.00;71.43
50774;BME280;36745;48.544;8.918;2024-02-28T14:50:11;97723.69;;;8.24;72.02
50774;BME280;36745;48.544;8.918;2024-02-28T14:53:31;97721.31;;;8.26;72.07
50774;BME280;36745;48.544;8.918;2024-02-28T14:56:51;97718.19;;;8.24;71.32
50774;BME280;36745;48.544;8.918;2024-02-28T15:00:11;97714.97;;;8.29;71.69
50774;BME280;36745;48.544;8.918;2024-02-28T15:03:34;97715.38;;;8.31;71.71
50774;BME280;36745;48.544;8.918;2024-02-28T15:06:53;97717.84;;;8.49;71.25
50774;BME280;36745;48.544;8.918;2024-02-28T15:10:13;97715.38;;;8.54;71.37
50774;BME280;36745;48.544;8.918;2024-02-28T15:13:33;97706.03;;;8.52;71.11
50774;BME280;36745;48.544;8.918;2024-02-28T15:16:53;97711.56;;;8.48;70.66
50774;BME280;36745;48.544;8.918;2024-02-28T15:20:13;97711.81;;;8.57;71.34
50774;BME280;36745;48.544;8.918;2024-02-28T15:23:33;97711.22;;;8.46;70.35
50774;BME280;36745;48.544;8.918;2024-02-28T15:26:52;97718.75;;;8.42;70.77
50774;BME280;36745;48.544;8.918;2024-02-28T15:30:13;97719.09;;;8.44;70.87
50774;BME280;36745;48.544;8.918;2024-02-28T15:33:33;97724.25;;;8.42;70.98
50774;BME280;36745;48.544;8.918;2024-02-28T15:36:53;97713.66;;;8.10;70.57
50774;BME280;36745;48.544;8.918;2024-02-28T15:40:13;97715.06;;;8.22;70.89
50774;BME280;36745;48.544;8.918;2024-02-28T15:43:33;97715.06;;;8.22;71.16
50774;BME280;36745;48.544;8.918;2024-02-28T15:46:54;97713.41;;;8.28;71.53
50774;BME280;36745;48.544;8.918;2024-02-28T15:50:15;97720.94;;;8.24;71.42
50774;BME280;36745;48.544;8.918;2024-02-28T15:53:34;97721.22;;;8.33;71.64
50774;BME280;36745;48.544;8.918;2024-02-28T15:56:55;97712.69;;;8.24;71.50
50774;BME280;36745;48.544;8.918;2024-02-28T16:00:18;97714.56;;;8.04;72.15
50774;BME280;36745;48.544;8.918;2024-02-28T16:03:38;97714.44;;;8.11;72.21
50774;BME280;36745;48.544;8.918;2024-02-28T16:06:58;97716.22;;;7.97;71.83
50774;BME280;36745;48.544;8.918;2024-02-28T16:10:20;97715.75;;;7.72;72.87
50774;BME280;36745;48.544;8.918;2024-02-28T16:13:40;97719.44;;;7.92;73.10
50774;BME280;36745;48.544;8.918;2024-02-28T16:17:02;97719.50;;;7.85;72.49
50774;BME280;36745;48.544;8.918;2024-02-28T16:20:21;97721.88;;;7.83;73.52
50774;BME280;36745;48.544;8.918;2024-02-28T16:23:43;97722.53;;;7.94;73.02
50774;BME280;36745;48.544;8.918;2024-02-28T16:27:03;97722.84;;;7.70;73.45
50774;BME280;36745;48.544;8.918;2024-02-28T16:30:22;97722.72;;;7.80;73.04
50774;BME280;36745;48.544;8.918;2024-02-28T16:33:42;97723.56;;;7.77;73.24
50774;BME280;36745;48.544;8.918;2024-02-28T16:37:03;97719.97;;;7.80;72.98
50774;BME280;36745;48.544;8.918;2024-02-28T16:40:22;97722.78;;;7.77;73.30
50774;BME280;36745;48.544;8.918;2024-02-28T16:43:42;97720.50;;;7.68;73.40
50774;BME280;36745;48.544;8.918;2024-02-28T16:47:05;97725.69;;;7.63;73.74
50774;BME280;36745;48.544;8.918;2024-02-28T16:50:25;97725.34;;;7.57;73.89
50774;BME280;36745;48.544;8.918;2024-02-28T16:53:45;97730.13;;;7.53;74.38
50774;BME280;36745;48.544;8.918;2024-02-28T16:57:04;97727.88;;;7.44;74.34
50774;BME280;36745;48.544;8.918;2024-02-28T17:00:24;97724.41;;;7.37;75.03
50774;BME280;36745;48.544;8.918;2024-02-28T17:03:44;97729.97;;;7.30;75.01
50774;BME280;36745;48.544;8.918;2024-02-28T17:07:04;97729.63;;;7.28;75.13
50774;BME280;36745;48.544;8.918;2024-02-28T17:10:24;97732.06;;;7.18;75.47
50774;BME280;36745;48.544;8.918;2024-02-28T17:13:45;97741.50;;;7.14;75.78
50774;BME280;36745;48.544;8.918;2024-02-28T17:17:05;97738.03;;;7.10;75.94
50774;BME280;36745;48.544;8.918;2024-02-28T17:20:25;97739.53;;;7.14;76.21
50774;BME280;36745;48.544;8.918;2024-02-28T17:23:46;97750.22;;;7.05;76.25
50774;BME280;36745;48.544;8.918;2024-02-28T17:27:06;97747.59;;;6.91;76.88
50774;BME280;36745;48.544;8.918;2024-02-28T17:30:26;97749.97;;;6.86;77.10
50774;BME280;36745;48.544;8.918;2024-02-28T17:33:45;97744.97;;;6.77;77.84
50774;BME280;36745;48.544;8.918;2024-02-28T17:37:07;97757.56;;;6.71;78.24
50774;BME280;36745;48.544;8.918;2024-02-28T17:40:27;97758.84;;;6.56;78.21
50774;BME280;36745;48.544;8.918;2024-02-28T17:43:47;97761.31;;;6.40;78.31
50774;BME280;36745;48.544;8.918;2024-02-28T17:47:06;97767.66;;;6.29;79.01
50774;BME280;36745;48.544;8.918;2024-02-28T17:50:26;97768.06;;;6.24;79.89
50774;BME280;36745;48.544;8.918;2024-02-28T17:53:46;97773.59;;;6.17;80.10